createdAt,value
2022-10-28T00:02:07.239Z,100.00
2022-10-28T00:04:23.932Z,100.00
2022-10-28T00:04:36.309Z,100.00
2022-10-28T00:07:05.446Z,100.00
2022-10-28T00:09:25.655Z,100.00
2022-10-28T00:09:34.382Z,100.00
2022-10-28T00:12:00.764Z,100.00
2022-10-28T00:14:23.861Z,100.00
2022-10-28T00:14:32.539Z,100.00
2022-10-28T00:17:01.432Z,100.00
2022-10-28T00:19:23.903Z,100.00
2022-10-28T00:19:27.799Z,100.00
2022-10-28T00:21:54.131Z,100.00
2022-10-28T00:24:20.632Z,100.00
2022-10-28T00:24:23.888Z,100.00
2022-10-28T00:26:47.231Z,100.00
2022-10-28T00:29:19.657Z,100.00
2022-10-28T00:29:23.889Z,100.00
2022-10-28T00:31:50.777Z,100.00
2022-10-28T00:34:22.581Z,100.00
2022-10-28T00:34:23.916Z,100.00
2022-10-28T00:36:54.355Z,100.00
2022-10-28T00:39:25.551Z,100.00
2022-10-28T00:39:28.117Z,100.00
2022-10-28T00:41:54.797Z,100.00
2022-10-28T00:44:39.501Z,100.00
2022-10-28T00:44:41.353Z,100.00
2022-10-28T00:47:13.496Z,100.00
2022-10-28T00:49:23.883Z,100.00
2022-10-28T00:49:41.427Z,100.00
2022-10-28T00:52:16.268Z,100.00
2022-10-28T00:54:23.941Z,100.00
2022-10-28T00:54:47.668Z,100.00
2022-10-28T00:57:20.676Z,100.00
2022-10-28T00:59:24.023Z,100.00
2022-10-28T00:59:50.741Z,100.00
2022-10-28T01:02:20.459Z,100.00
2022-10-28T01:04:23.900Z,100.00
2022-10-28T01:04:50.136Z,100.00
2022-10-28T01:07:17.541Z,100.00
2022-10-28T01:09:44.477Z,100.00
2022-10-28T01:12:35.426Z,100.00
2022-10-28T01:14:23.892Z,100.00
2022-10-28T01:15:21.674Z,100.00
2022-10-28T01:18:13.026Z,100.00
2022-10-28T01:19:24.177Z,100.00
2022-10-28T01:20:48.484Z,100.00
2022-10-28T01:23:49.475Z,100.00
2022-10-28T01:24:23.893Z,100.00
2022-10-28T01:26:35.766Z,100.00
2022-10-28T01:29:21.263Z,100.00
2022-10-28T01:29:23.914Z,100.00
2022-10-28T01:32:07.800Z,100.00
2022-10-28T01:34:23.947Z,100.00
2022-10-28T01:34:49.577Z,100.00
2022-10-28T01:37:35.205Z,100.00
2022-10-28T01:39:29.742Z,100.00
2022-10-28T01:40:12.148Z,100.00
2022-10-28T01:42:57.233Z,100.00
2022-10-28T01:44:23.896Z,100.00
2022-10-28T01:45:58.669Z,100.00
2022-10-28T01:48:43.032Z,100.00
2022-10-28T01:49:24.261Z,100.00
2022-10-28T01:51:34.447Z,100.00
2022-10-28T01:54:05.667Z,100.00
2022-10-28T01:54:23.895Z,100.00
2022-10-28T01:56:37.186Z,100.00
2022-10-28T01:59:06.501Z,100.00
2022-10-28T01:59:23.907Z,100.00
2022-10-28T02:01:34.024Z,100.00
2022-10-28T02:04:01.231Z,100.00
2022-10-28T02:04:23.902Z,100.00
2022-10-28T02:06:33.196Z,100.00
2022-10-28T02:09:27.692Z,100.00
2022-10-28T02:09:27.829Z,100.00
2022-10-28T02:12:00.725Z,100.00
2022-10-28T02:14:23.901Z,100.00
2022-10-28T02:14:38.817Z,100.00
2022-10-28T02:17:25.346Z,100.00
2022-10-28T02:19:23.938Z,100.00
2022-10-28T02:20:10.146Z,100.00
2022-10-28T02:22:43.977Z,100.00
2022-10-28T02:24:23.909Z,100.00
2022-10-28T02:25:25.164Z,100.00
2022-10-28T02:28:07.035Z,100.00
2022-10-28T02:29:23.938Z,100.00
2022-10-28T02:30:57.912Z,100.00
2022-10-28T02:33:29.059Z,100.00
2022-10-28T02:34:23.929Z,100.00
2022-10-28T02:36:04.893Z,100.00
2022-10-28T02:38:45.633Z,100.00
2022-10-28T02:39:23.912Z,100.00
2022-10-28T02:41:36.784Z,100.00
2022-10-28T02:44:10.383Z,100.00
2022-10-28T02:44:23.922Z,100.00
2022-10-28T02:46:41.685Z,100.00
2022-10-28T02:49:14.282Z,100.00
2022-10-28T02:49:23.923Z,100.00
2022-10-28T02:51:48.109Z,100.00
2022-10-28T02:54:23.149Z,100.00
2022-10-28T02:54:23.930Z,100.00
2022-10-28T02:56:57.072Z,100.00
2022-10-28T02:59:25.611Z,100.00
2022-10-28T02:59:25.760Z,100.00
2022-10-28T03:01:52.085Z,100.00
2022-10-28T03:04:18.516Z,100.00
2022-10-28T03:04:23.914Z,100.00
2022-10-28T03:06:44.815Z,100.00
2022-10-28T03:09:11.227Z,100.00
2022-10-28T03:09:23.921Z,100.00
2022-10-28T03:11:37.628Z,100.00
2022-10-28T03:14:04.203Z,100.00
2022-10-28T03:14:23.925Z,100.00
2022-10-28T03:16:30.651Z,100.00
2022-10-28T03:18:57.135Z,100.00
2022-10-28T03:19:23.920Z,100.00
2022-10-28T03:21:23.661Z,100.00
2022-10-28T03:23:49.950Z,100.00
2022-10-28T03:24:24.121Z,100.00
2022-10-28T03:26:16.357Z,100.00
2022-10-28T03:28:42.748Z,100.00
2022-10-28T03:29:23.919Z,100.00
2022-10-28T03:31:09.201Z,100.00
2022-10-28T03:33:35.550Z,100.00
2022-10-28T03:34:23.946Z,100.00
2022-10-28T03:36:01.935Z,100.00
2022-10-28T03:38:28.310Z,100.00
2022-10-28T03:39:23.927Z,100.00
2022-10-28T03:40:54.758Z,100.00
2022-10-28T03:43:21.131Z,100.00
2022-10-28T03:44:24.011Z,100.00
2022-10-28T03:45:47.637Z,100.00
2022-10-28T03:48:14.093Z,100.00
2022-10-28T03:49:23.933Z,100.00
2022-10-28T03:50:40.433Z,100.00
2022-10-28T03:53:06.759Z,100.00
2022-10-28T03:54:23.930Z,100.00
2022-10-28T03:55:33.196Z,100.00
2022-10-28T03:58:03.131Z,100.00
2022-10-28T03:59:23.944Z,100.00
2022-10-28T04:00:29.841Z,100.00
2022-10-28T04:02:56.553Z,100.00
2022-10-28T04:04:28.311Z,100.00
2022-10-28T04:05:23.319Z,100.00
2022-10-28T04:07:49.692Z,100.00
2022-10-28T04:09:23.943Z,100.00
2022-10-28T04:10:17.318Z,100.00
2022-10-28T04:12:43.612Z,100.00
2022-10-28T04:14:23.962Z,100.00
2022-10-28T04:15:09.986Z,100.00
2022-10-28T04:17:36.449Z,100.00
2022-10-28T04:19:23.943Z,100.00
2022-10-28T04:20:03.003Z,100.00
2022-10-28T04:22:29.337Z,100.00
2022-10-28T04:24:23.944Z,100.00
2022-10-28T04:24:55.771Z,100.00
2022-10-28T04:27:22.124Z,100.00
2022-10-28T04:29:23.946Z,100.00
2022-10-28T04:29:48.468Z,100.00
2022-10-28T04:32:14.983Z,100.00
2022-10-28T04:34:23.993Z,100.00
2022-10-28T04:34:41.274Z,100.00
2022-10-28T04:37:07.710Z,100.00
2022-10-28T04:39:23.976Z,100.00
2022-10-28T04:39:34.014Z,100.00
2022-10-28T04:42:00.365Z,100.00
2022-10-28T04:44:23.945Z,100.00
2022-10-28T04:44:26.689Z,100.00
2022-10-28T04:46:56.380Z,100.00
2022-10-28T04:49:22.656Z,100.00
2022-10-28T04:49:23.963Z,100.00
2022-10-28T04:51:49.114Z,100.00
2022-10-28T04:54:15.518Z,100.00
2022-10-28T04:54:23.949Z,100.00
2022-10-28T04:56:41.860Z,100.00
2022-10-28T04:59:08.269Z,100.00
2022-10-28T04:59:23.958Z,100.00
2022-10-28T05:01:34.721Z,100.00
2022-10-28T05:04:01.244Z,100.00
2022-10-28T05:04:23.948Z,100.00
2022-10-28T05:06:27.560Z,100.00
2022-10-28T05:08:53.954Z,100.00
2022-10-28T05:09:23.957Z,100.00
2022-10-28T05:11:20.390Z,100.00
2022-10-28T05:13:46.834Z,100.00
2022-10-28T05:14:23.954Z,100.00
2022-10-28T05:16:13.168Z,100.00
2022-10-28T05:18:39.596Z,100.00
2022-10-28T05:19:23.946Z,100.00
2022-10-28T05:21:06.036Z,100.00
2022-10-28T05:23:32.529Z,100.00
2022-10-28T05:24:24.077Z,100.00
2022-10-28T05:25:58.916Z,100.00
2022-10-28T05:28:25.439Z,100.00
2022-10-28T05:29:23.966Z,100.00
2022-10-28T05:30:51.964Z,100.00
2022-10-28T05:33:18.292Z,100.00
2022-10-28T05:34:23.983Z,100.00
2022-10-28T05:35:44.707Z,100.00
2022-10-28T05:38:11.234Z,100.00
2022-10-28T05:39:23.962Z,100.00
2022-10-28T05:40:37.732Z,100.00
2022-10-28T05:43:04.159Z,100.00
2022-10-28T05:44:23.965Z,100.00
2022-10-28T05:45:30.920Z,100.00
2022-10-28T05:47:57.917Z,100.00
2022-10-28T05:49:23.960Z,100.00
2022-10-28T05:50:24.261Z,100.00
2022-10-28T05:52:55.670Z,100.00
2022-10-28T05:54:23.993Z,100.00
2022-10-28T05:55:24.601Z,100.00
2022-10-28T05:57:52.618Z,100.00
2022-10-28T05:59:24.055Z,100.00
2022-10-28T06:00:22.219Z,100.00
2022-10-28T06:02:48.637Z,100.00
2022-10-28T06:04:23.970Z,100.00
2022-10-28T06:05:15.588Z,100.00
2022-10-28T06:07:42.605Z,100.00
2022-10-28T06:09:23.969Z,100.00
2022-10-28T06:10:10.691Z,100.00
2022-10-28T06:12:35.831Z,100.00
2022-10-28T06:14:22.430Z,100.00
2022-10-28T06:15:02.819Z,100.00
2022-10-28T06:17:29.755Z,100.00
2022-10-28T06:19:22.452Z,100.00
2022-10-28T06:19:56.088Z,100.00
2022-10-28T06:22:22.448Z,100.00
2022-10-28T06:24:22.451Z,100.00
2022-10-28T06:24:48.851Z,100.00
2022-10-28T06:27:15.378Z,100.00
2022-10-28T06:29:22.478Z,100.00
2022-10-28T06:29:41.690Z,100.00
2022-10-28T06:32:09.297Z,100.00
2022-10-28T06:34:22.462Z,100.00
2022-10-28T06:34:37.545Z,100.00
2022-10-28T06:37:05.607Z,100.00
2022-10-28T06:39:22.515Z,100.00
2022-10-28T06:39:32.814Z,100.00
2022-10-28T06:41:59.504Z,100.00
2022-10-28T06:44:22.468Z,100.00
2022-10-28T06:44:26.128Z,100.00
2022-10-28T06:46:54.055Z,100.00
2022-10-28T06:49:20.387Z,100.00
2022-10-28T06:49:23.973Z,100.00
2022-10-28T06:51:46.833Z,100.00
2022-10-28T06:54:13.124Z,100.00
2022-10-28T06:54:23.985Z,100.00
2022-10-28T06:56:39.422Z,100.00
2022-10-28T06:59:05.979Z,100.00
2022-10-28T06:59:23.987Z,100.00
2022-10-28T07:01:32.454Z,100.00
2022-10-28T07:03:59.079Z,100.00
2022-10-28T07:04:24.043Z,100.00
2022-10-28T07:06:25.384Z,100.00
2022-10-28T07:08:52.124Z,100.00
2022-10-28T07:09:24.101Z,100.00
2022-10-28T07:11:19.072Z,100.00
2022-10-28T07:13:48.151Z,100.00
2022-10-28T07:14:23.985Z,100.00
2022-10-28T07:16:15.522Z,100.00
2022-10-28T07:18:41.828Z,100.00
2022-10-28T07:19:24.021Z,100.00
2022-10-28T07:21:08.387Z,100.00
2022-10-28T07:23:34.884Z,100.00
2022-10-28T07:24:24.042Z,100.00
2022-10-28T07:26:01.363Z,100.00
2022-10-28T07:28:28.506Z,100.00
2022-10-28T07:29:24.011Z,100.00
2022-10-28T07:30:54.973Z,100.00
2022-10-28T07:33:21.531Z,100.00
2022-10-28T07:34:26.991Z,100.00
2022-10-28T07:35:47.922Z,100.00
2022-10-28T07:38:14.538Z,100.00
2022-10-28T07:39:24.260Z,100.00
2022-10-28T07:40:40.953Z,100.00
2022-10-28T07:43:07.388Z,100.00
2022-10-28T07:44:24.012Z,100.00
2022-10-28T07:45:35.293Z,100.00
2022-10-28T07:48:02.364Z,100.00
2022-10-28T07:49:24.052Z,100.00
2022-10-28T07:50:28.891Z,100.00
2022-10-28T07:52:55.703Z,100.00
2022-10-28T07:54:24.038Z,100.00
2022-10-28T07:55:22.779Z,100.00
2022-10-28T07:57:49.477Z,100.00
2022-10-28T07:59:26.655Z,100.00
2022-10-28T08:00:16.467Z,100.00
2022-10-28T08:02:42.917Z,100.00
2022-10-28T08:04:24.032Z,100.00
2022-10-28T08:05:10.363Z,100.00
2022-10-28T08:07:38.754Z,100.00
2022-10-28T08:09:24.026Z,100.00
2022-10-28T08:10:07.009Z,100.00
2022-10-28T08:12:33.653Z,100.00
2022-10-28T08:14:24.078Z,100.00
2022-10-28T08:15:00.124Z,100.00
2022-10-28T08:17:26.504Z,100.00
2022-10-28T08:19:24.062Z,100.00
2022-10-28T08:19:52.844Z,100.00
2022-10-28T08:22:19.259Z,100.00
2022-10-28T08:24:23.996Z,100.00
2022-10-28T08:24:45.620Z,100.00
2022-10-28T08:27:12.048Z,100.00
2022-10-28T08:29:27.630Z,100.00
2022-10-28T08:29:38.447Z,100.00
2022-10-28T08:32:08.323Z,100.00
2022-10-28T08:34:24.038Z,100.00
2022-10-28T08:34:37.963Z,100.00
2022-10-28T08:37:07.198Z,100.00
2022-10-28T08:39:24.006Z,23
2022-10-28T08:39:33.595Z,100.00
2022-10-28T08:42:17.853Z,100.00
2022-10-28T08:44:24.008Z,100.00
2022-10-28T08:45:16.102Z,100.00
2022-10-28T08:48:06.192Z,100.00
2022-10-28T08:49:24.012Z,100.00
2022-10-28T08:50:44.210Z,100.00
2022-10-28T08:53:16.830Z,100.00
2022-10-28T08:54:23.997Z,100.00
2022-10-28T08:55:45.664Z,100.00
2022-10-28T08:58:26.457Z,100.00
2022-10-28T08:59:23.998Z,100.00
2022-10-28T09:00:55.141Z,100.00
2022-10-28T09:03:27.368Z,100.00
2022-10-28T09:04:24.011Z,100.00
2022-10-28T09:06:03.883Z,100.00
2022-10-28T09:08:34.802Z,99.87
2022-10-28T09:09:23.991Z,99.87
2022-10-28T09:11:14.485Z,98.83
2022-10-28T09:13:51.356Z,97.62
2022-10-28T09:14:24.037Z,97.62
2022-10-28T09:16:39.702Z,96.92
2022-10-28T09:19:20.653Z,93.86
2022-10-28T09:19:24.019Z,93.86
2022-10-28T09:21:52.917Z,92.48
2022-10-28T09:24:23.117Z,91.66
2022-10-28T09:24:24.075Z,91.66
2022-10-28T09:27:29.733Z,90.81
2022-10-28T09:29:23.988Z,90.81
2022-10-28T09:30:17.749Z,89.94
2022-10-28T09:33:08.613Z,88.13
2022-10-28T09:34:24.376Z,88.13
2022-10-28T09:35:43.289Z,87.69
2022-10-28T09:38:29.828Z,86.84
2022-10-28T09:39:27.623Z,86.84
2022-10-28T09:41:04.370Z,85.91
2022-10-28T09:43:35.101Z,84.46
2022-10-28T09:44:24.009Z,84.46
2022-10-28T09:46:15.029Z,83.97
2022-10-28T09:48:46.005Z,82.92
2022-10-28T09:49:24.027Z,82.92
2022-10-28T09:51:26.438Z,83.03
2022-10-28T09:54:02.127Z,81.96
2022-10-28T09:54:24.007Z,81.96
2022-10-28T09:56:30.470Z,80.57
2022-10-28T09:59:02.925Z,78.87
2022-10-28T09:59:24.202Z,78.87
2022-10-28T10:01:36.258Z,79.33
2022-10-28T10:04:06.359Z,78.73
2022-10-28T10:04:24.026Z,78.73
2022-10-28T10:06:37.500Z,78.63
2022-10-28T10:09:04.532Z,79.19
2022-10-28T10:09:24.000Z,79.19
2022-10-28T10:11:48.935Z,81.21
2022-10-28T10:14:19.170Z,81.24
2022-10-28T10:14:24.016Z,81.24
2022-10-28T10:17:06.394Z,80.92
2022-10-28T10:19:24.023Z,80.92
2022-10-28T10:19:57.383Z,80.62
2022-10-28T10:22:44.425Z,80.94
2022-10-28T10:24:24.016Z,80.94
2022-10-28T10:25:19.723Z,80.92
2022-10-28T10:28:03.625Z,80.05
2022-10-28T10:29:24.090Z,80.05
2022-10-28T10:30:38.098Z,80.16
2022-10-28T10:33:05.831Z,79.42
2022-10-28T10:34:23.996Z,79.42
2022-10-28T10:35:35.190Z,78.62
2022-10-28T10:38:05.460Z,78.27
2022-10-28T10:39:24.005Z,78.27
2022-10-28T10:40:35.542Z,77.74
2022-10-28T10:43:22.418Z,77.83
2022-10-28T10:44:24.042Z,77.83
2022-10-28T10:45:58.976Z,78.61
2022-10-28T10:48:25.478Z,77.60
2022-10-28T10:49:24.011Z,77.60
2022-10-28T10:50:52.721Z,78.49
2022-10-28T10:53:30.698Z,78.29
2022-10-28T10:54:24.061Z,78.29
2022-10-28T10:56:01.478Z,78.67
2022-10-28T10:58:31.522Z,78.05
2022-10-28T10:59:24.019Z,78.05
2022-10-28T11:01:00.961Z,77.25
2022-10-28T11:03:34.744Z,76.18
2022-10-28T11:04:24.041Z,76.18
2022-10-28T11:06:22.491Z,74.95
2022-10-28T11:08:54.417Z,74.21
2022-10-28T11:09:24.020Z,74.21
2022-10-28T11:11:22.687Z,74.77
2022-10-28T11:14:03.398Z,74.84
2022-10-28T11:14:24.019Z,74.84
2022-10-28T11:16:29.844Z,74.99
2022-10-28T11:18:58.561Z,74.39
2022-10-28T11:19:24.033Z,74.39
2022-10-28T11:21:42.969Z,73.94
2022-10-28T11:24:34.836Z,73.62
2022-10-28T11:24:34.964Z,73.62
2022-10-28T11:27:07.083Z,73.48
2022-10-28T11:29:24.015Z,73.48
2022-10-28T11:29:33.589Z,72.63
2022-10-28T11:32:33.928Z,73.02
2022-10-28T11:34:24.044Z,73.02
2022-10-28T11:35:15.239Z,72.76
2022-10-28T11:37:52.832Z,71.74
2022-10-28T11:39:24.157Z,71.74
2022-10-28T11:40:49.353Z,72.24
2022-10-28T11:43:55.783Z,72.15
2022-10-28T11:44:24.012Z,72.15
2022-10-28T11:46:54.923Z,71.36
2022-10-28T11:49:30.339Z,70.23
2022-10-28T11:49:30.469Z,70.23
2022-10-28T11:52:08.873Z,68.43
2022-10-28T11:54:24.024Z,68.43
2022-10-28T11:55:07.812Z,67.67
2022-10-28T11:57:57.774Z,67.27
2022-10-28T11:59:24.027Z,67.27
2022-10-28T12:00:45.900Z,67.10
2022-10-28T12:03:29.057Z,66.47
2022-10-28T12:04:24.029Z,66.47
2022-10-28T12:06:12.122Z,66.82
2022-10-28T12:08:50.467Z,66.72
2022-10-28T12:09:24.063Z,66.72
2022-10-28T12:11:32.533Z,66.40
2022-10-28T12:14:24.042Z,66.60
2022-10-28T12:16:48.786Z,65.57
2022-10-28T12:19:38.298Z,65.87
2022-10-28T12:19:38.426Z,65.87
2022-10-28T12:22:19.379Z,65.74
2022-10-28T12:24:24.030Z,65.74
2022-10-28T12:24:46.556Z,64.39
2022-10-28T12:27:25.008Z,64.94
2022-10-28T12:29:24.054Z,64.94
2022-10-28T12:29:56.928Z,64.10
2022-10-28T12:32:29.352Z,63.05
2022-10-28T12:34:24.116Z,63.05
2022-10-28T12:35:00.455Z,63.74
2022-10-28T12:37:36.391Z,63.91
2022-10-28T12:39:24.061Z,63.91
2022-10-28T12:40:26.053Z,64.05
2022-10-28T12:42:58.675Z,63.95
2022-10-28T12:44:24.064Z,63.95
2022-10-28T12:45:25.470Z,63.73
2022-10-28T12:47:58.152Z,63.84
2022-10-28T12:49:24.071Z,63.84
2022-10-28T12:50:49.387Z,64.73
2022-10-28T12:53:24.264Z,64.45
2022-10-28T12:54:24.033Z,64.45
2022-10-28T12:55:53.273Z,64.83
2022-10-28T12:58:32.293Z,64.50
2022-10-28T12:59:24.059Z,64.50
2022-10-28T13:01:10.561Z,64.97
2022-10-28T13:03:37.102Z,65.09
2022-10-28T13:04:24.035Z,65.09
2022-10-28T13:06:22.530Z,65.57
2022-10-28T13:09:10.820Z,66.15
2022-10-28T13:09:24.048Z,66.15
2022-10-28T13:12:27.588Z,65.51
2022-10-28T13:14:24.052Z,65.51
2022-10-28T13:15:19.621Z,66.67
2022-10-28T13:18:04.624Z,66.72
2022-10-28T13:19:24.042Z,66.72
2022-10-28T13:20:47.366Z,67.69
2022-10-28T13:23:23.769Z,67.83
2022-10-28T13:24:24.037Z,67.83
2022-10-28T13:26:09.363Z,67.63
2022-10-28T13:28:43.800Z,67.97
2022-10-28T13:29:24.039Z,67.97
2022-10-28T13:31:10.959Z,67.72
2022-10-28T13:33:41.213Z,68.37
2022-10-28T13:34:24.037Z,68.37
2022-10-28T13:36:17.546Z,68.20
2022-10-28T13:38:51.547Z,67.43
2022-10-28T13:39:24.029Z,67.43
2022-10-28T13:41:40.860Z,68.59
2022-10-28T13:44:09.700Z,69.11
2022-10-28T13:44:24.085Z,69.11
2022-10-28T13:47:01.236Z,69.89
2022-10-28T13:49:24.077Z,69.89
2022-10-28T13:49:30.436Z,70.03
2022-10-28T13:52:13.169Z,70.17
2022-10-28T13:54:24.137Z,70.17
2022-10-28T13:54:39.378Z,69.99
2022-10-28T13:57:13.623Z,70.17
2022-10-28T13:59:24.051Z,70.17
2022-10-28T13:59:51.308Z,71.07
2022-10-28T14:02:35.224Z,71.51
2022-10-28T14:04:24.054Z,71.51
2022-10-28T14:05:07.320Z,72.01
2022-10-28T14:07:36.709Z,73.35
2022-10-28T14:09:24.051Z,73.35
2022-10-28T14:10:34.770Z,74.04
2022-10-28T14:13:06.762Z,69.98
2022-10-28T14:14:24.199Z,69.98
2022-10-28T14:15:38.832Z,69.41
2022-10-28T14:18:43.099Z,67.16
2022-10-28T14:19:24.053Z,67.16
2022-10-28T14:21:02.058Z,66.82
2022-10-28T14:23:28.775Z,66.22
2022-10-28T14:24:24.048Z,66.22
2022-10-28T14:25:55.904Z,65.74
2022-10-28T14:28:31.404Z,66.96
2022-10-28T14:29:24.071Z,66.96
2022-10-28T14:31:12.765Z,66.66
2022-10-28T14:33:51.169Z,66.30
2022-10-28T14:34:24.060Z,66.30
2022-10-28T14:36:17.452Z,66.49
2022-10-28T14:38:53.148Z,65.54
2022-10-28T14:39:24.052Z,65.54
2022-10-28T14:41:38.128Z,65.88
2022-10-28T14:44:39.583Z,66.25
2022-10-28T14:44:39.733Z,66.25
2022-10-28T14:47:32.834Z,66.59
2022-10-28T14:49:24.048Z,66.59
2022-10-28T14:50:08.039Z,66.53
2022-10-28T14:52:36.942Z,66.75
2022-10-28T14:54:24.057Z,66.75
2022-10-28T14:55:07.304Z,66.81
2022-10-28T14:57:34.786Z,67.34
2022-10-28T14:59:24.101Z,67.34
2022-10-28T15:00:07.549Z,67.32
2022-10-28T15:02:36.963Z,68.57
2022-10-28T15:04:24.052Z,68.57
2022-10-28T15:05:12.488Z,69.32
2022-10-28T15:07:40.305Z,69.35
2022-10-28T15:09:24.052Z,69.35
2022-10-28T15:10:38.280Z,70.74
2022-10-28T15:13:07.281Z,72.00
2022-10-28T15:14:24.050Z,72.00
2022-10-28T15:15:37.662Z,73.42
2022-10-28T15:18:21.127Z,73.77
2022-10-28T15:19:24.055Z,73.77
2022-10-28T15:20:47.511Z,73.73
2022-10-28T15:23:18.679Z,74.53
2022-10-28T15:24:24.059Z,74.53
2022-10-28T15:25:45.224Z,75.19
2022-10-28T15:28:13.019Z,75.71
2022-10-28T15:29:24.049Z,75.71
2022-10-28T15:30:46.058Z,76.01
2022-10-28T15:33:32.700Z,76.11
2022-10-28T15:34:24.081Z,76.11
2022-10-28T15:36:21.295Z,75.32
2022-10-28T15:38:52.758Z,75.27
2022-10-28T15:39:24.053Z,75.27
2022-10-28T15:41:39.744Z,74.61
2022-10-28T15:44:17.847Z,75.47
2022-10-28T15:44:24.050Z,75.47
2022-10-28T15:46:49.859Z,75.80
2022-10-28T15:49:38.202Z,77.51
2022-10-28T15:49:38.314Z,77.51
2022-10-28T15:52:35.995Z,77.22
2022-10-28T15:54:24.068Z,77.22
2022-10-28T15:55:15.610Z,77.70
2022-10-28T15:57:53.761Z,79.14
2022-10-28T15:59:24.064Z,79.14
2022-10-28T16:00:24.719Z,79.64
2022-10-28T16:02:56.191Z,80.37
2022-10-28T16:04:24.097Z,80.37
2022-10-28T16:05:31.810Z,80.15
2022-10-28T16:08:00.611Z,80.94
2022-10-28T16:09:24.112Z,80.94
2022-10-28T16:10:31.271Z,81.36
2022-10-28T16:12:57.767Z,81.51
2022-10-28T16:14:24.049Z,81.51
2022-10-28T16:15:24.254Z,83.11
2022-10-28T16:17:50.631Z,83.42
2022-10-28T16:19:24.079Z,83.42
2022-10-28T16:20:23.581Z,83.83
2022-10-28T16:22:50.432Z,84.46
2022-10-28T16:24:24.051Z,84.46
2022-10-28T16:25:21.837Z,84.98
2022-10-28T16:27:49.455Z,85.52
2022-10-28T16:29:24.082Z,85.52
2022-10-28T16:30:16.316Z,86.22
2022-10-28T16:32:48.765Z,86.37
2022-10-28T16:34:24.048Z,86.37
2022-10-28T16:35:20.680Z,87.65
2022-10-28T16:37:50.676Z,87.46
2022-10-28T16:39:24.076Z,87.46
2022-10-28T16:40:45.712Z,88.26
2022-10-28T16:43:13.621Z,88.61
2022-10-28T16:44:24.059Z,88.61
2022-10-28T16:45:39.955Z,88.83
2022-10-28T16:48:11.126Z,88.85
2022-10-28T16:49:24.082Z,88.85
2022-10-28T16:50:37.470Z,89.45
2022-10-28T16:53:03.897Z,90.92
2022-10-28T16:54:24.062Z,90.92
2022-10-28T16:55:30.282Z,91.20
2022-10-28T16:57:57.009Z,92.93
2022-10-28T16:59:24.068Z,92.93
2022-10-28T17:00:23.618Z,92.45
2022-10-28T17:02:50.869Z,93.98
2022-10-28T17:04:24.057Z,93.98
2022-10-28T17:05:23.219Z,94.49
2022-10-28T17:07:50.061Z,94.93
2022-10-28T17:09:24.062Z,94.93
2022-10-28T17:10:17.321Z,95.46
2022-10-28T17:12:43.710Z,95.94
2022-10-28T17:14:24.083Z,95.94
2022-10-28T17:15:10.629Z,96.97
2022-10-28T17:17:37.040Z,98.17
2022-10-28T17:19:24.046Z,98.17
2022-10-28T17:20:04.386Z,98.19
2022-10-28T17:22:31.279Z,99.01
2022-10-28T17:24:24.079Z,99.01
2022-10-28T17:24:57.716Z,99.90
2022-10-28T17:27:24.333Z,99.80
2022-10-28T17:29:24.058Z,99.80
2022-10-28T17:29:50.759Z,100.00
2022-10-28T17:32:17.528Z,100.00
2022-10-28T17:34:24.077Z,100.00
2022-10-28T17:34:43.968Z,100.00
2022-10-28T17:37:10.500Z,100.00
2022-10-28T17:39:26.205Z,100.00
2022-10-28T17:39:37.785Z,100.00
2022-10-28T17:42:04.260Z,100.00
2022-10-28T17:44:24.093Z,100.00
2022-10-28T17:44:30.702Z,100.00
2022-10-28T17:46:57.104Z,100.00
2022-10-28T17:49:23.521Z,100.00
2022-10-28T17:49:24.047Z,100.00
2022-10-28T17:51:51.421Z,100.00
2022-10-28T17:54:17.897Z,100.00
2022-10-28T17:56:45.234Z,100.00
2022-10-28T17:59:11.668Z,100.00
2022-10-28T17:59:24.080Z,100.00
2022-10-28T18:01:38.109Z,100.00
2022-10-28T18:04:06.072Z,100.00
2022-10-28T18:04:24.080Z,100.00
2022-10-28T18:06:32.466Z,100.00
2022-10-28T18:08:58.937Z,100.00
2022-10-28T18:09:24.069Z,100.00
2022-10-28T18:11:26.445Z,100.00
2022-10-28T18:13:55.152Z,100.00
2022-10-28T18:14:24.047Z,100.00
2022-10-28T18:16:28.083Z,100.00
2022-10-28T18:18:55.684Z,100.00
2022-10-28T18:19:24.086Z,100.00
2022-10-28T18:21:24.293Z,100.00
2022-10-28T18:23:52.586Z,100.00
2022-10-28T18:24:26.169Z,100.00
2022-10-28T18:26:19.535Z,100.00
2022-10-28T18:28:46.984Z,100.00
2022-10-28T18:29:24.066Z,100.00
2022-10-28T18:31:15.830Z,100.00
2022-10-28T18:33:43.317Z,100.00
2022-10-28T18:34:24.219Z,100.00
2022-10-28T18:36:15.497Z,100.00
2022-10-28T18:38:42.152Z,100.00
2022-10-28T18:39:24.051Z,100.00
2022-10-28T18:41:12.886Z,100.00
2022-10-28T18:43:40.371Z,100.00
2022-10-28T18:44:24.109Z,100.00
2022-10-28T18:46:07.483Z,100.00
2022-10-28T18:48:33.844Z,100.00
2022-10-28T18:49:24.094Z,100.00
2022-10-28T18:51:06.695Z,100.00
2022-10-28T18:53:41.852Z,100.00
2022-10-28T18:54:24.060Z,100.00
2022-10-28T18:56:11.628Z,100.00
2022-10-28T18:58:38.373Z,100.00
2022-10-28T18:59:24.263Z,100.00
2022-10-28T19:01:08.261Z,100.00
2022-10-28T19:03:35.010Z,100.00
2022-10-28T19:04:24.068Z,100.00
2022-10-28T19:06:10.826Z,100.00
2022-10-28T19:08:37.936Z,100.00
2022-10-28T19:09:24.064Z,100.00
2022-10-28T19:11:05.306Z,100.00
2022-10-28T19:13:36.517Z,100.00
2022-10-28T19:14:24.082Z,100.00
2022-10-28T19:16:03.429Z,100.00
2022-10-28T19:18:30.194Z,100.00
2022-10-28T19:19:24.082Z,100.00
2022-10-28T19:21:04.217Z,100.00
2022-10-28T19:23:32.434Z,100.00
2022-10-28T19:24:24.061Z,100.00
2022-10-28T19:25:59.993Z,100.00
2022-10-28T19:28:26.474Z,100.00
2022-10-28T19:29:24.170Z,100.00
2022-10-28T19:31:04.893Z,100.00
2022-10-28T19:33:32.314Z,100.00
2022-10-28T19:34:24.103Z,100.00
2022-10-28T19:36:03.996Z,100.00
2022-10-28T19:38:32.487Z,100.00
2022-10-28T19:39:24.084Z,100.00
2022-10-28T19:41:03.783Z,100.00
2022-10-28T19:43:30.325Z,100.00
2022-10-28T19:44:24.073Z,100.00
2022-10-28T19:46:10.381Z,100.00
2022-10-28T19:48:53.355Z,100.00
2022-10-28T19:49:26.978Z,100.00
2022-10-28T19:51:32.359Z,100.00
2022-10-28T19:54:02.601Z,100.00
2022-10-28T19:54:24.314Z,100.00
2022-10-28T19:56:48.414Z,100.00
2022-10-28T19:59:19.324Z,100.00
2022-10-28T19:59:24.542Z,100.00
2022-10-28T20:01:55.443Z,100.00
2022-10-28T20:04:28.560Z,100.00
2022-10-28T20:04:28.809Z,100.00
2022-10-28T20:06:57.777Z,100.00
2022-10-28T20:09:40.738Z,100.00
2022-10-28T20:09:41.143Z,100.00
2022-10-28T20:12:11.426Z,100.00
2022-10-28T20:14:25.325Z,100.00
2022-10-28T20:14:38.749Z,100.00
2022-10-28T20:17:06.866Z,100.00
2022-10-28T20:19:42.406Z,100.00
2022-10-28T20:22:09.949Z,100.00
2022-10-28T20:24:25.271Z,100.00
2022-10-28T20:24:57.408Z,100.00
2022-10-28T20:27:24.771Z,100.00
2022-10-28T20:29:24.068Z,100.00
2022-10-28T20:30:00.179Z,100.00
2022-10-28T20:32:28.812Z,100.00
2022-10-28T20:34:24.213Z,100.00
2022-10-28T20:34:56.130Z,100.00
2022-10-28T20:37:23.607Z,100.00
2022-10-28T20:39:24.186Z,100.00
2022-10-28T20:39:53.689Z,100.00
2022-10-28T20:42:27.037Z,100.00
2022-10-28T20:44:24.237Z,100.00
2022-10-28T20:44:54.265Z,100.00
2022-10-28T20:47:27.694Z,100.00
2022-10-28T20:49:24.154Z,100.00
2022-10-28T20:49:55.759Z,100.00
2022-10-28T20:54:24.179Z,100.00
2022-10-28T20:54:52.819Z,100.00
2022-10-28T20:57:23.185Z,100.00
2022-10-28T20:59:24.168Z,100.00
2022-10-28T21:00:01.660Z,100.00
2022-10-28T21:02:29.222Z,100.00
2022-10-28T21:04:24.400Z,100.00
2022-10-28T21:04:57.712Z,100.00
2022-10-28T21:07:28.432Z,100.00
2022-10-28T21:09:26.951Z,100.00
2022-10-28T21:09:55.858Z,100.00
2022-10-28T21:12:23.688Z,100.00
2022-10-28T21:14:24.155Z,100.00
2022-10-28T21:14:51.212Z,100.00
2022-10-28T21:17:21.548Z,100.00
2022-10-28T21:19:24.124Z,100.00
2022-10-28T21:19:48.815Z,100.00
2022-10-28T21:22:15.812Z,100.00
2022-10-28T21:24:25.254Z,100.00
2022-10-28T21:24:47.009Z,100.00
2022-10-28T21:27:23.207Z,100.00